Flight Track Log - Related Links

Times and Time Zones

All times are in EDT time to prevent confusion due to time zone crossing. See the QXE2570 flight status page for this flight to view local times or setup timezone preferences in your user account.


Time Position Orientation Groundspeed Altitude Reporting Facility
EDT Latitude Longitude Course Direction KTS MPH feet Rate Location/Type
Tue 11:43:00 AM 46.0256 -122.6564 350° North  Level FlightAware Approximate
Tue 11:44:00 AM 46.0992 -122.6698 352° North  Level FlightAware Approximate
Tue 11:45:00 AM 46.1729 -122.6842 354° North  Level FlightAware Approximate
Tue 11:46:00 AM 46.2469 -122.6948 354° North  Level FlightAware Approximate
Tue 11:47:00 AM 46.3192 -122.7166 North  Level FlightAware Approximate
Tue 11:48:00 AM 46.3935 -122.7132 North  Level FlightAware Approximate
Tue 11:49:00 AM 46.4679 -122.7098 North  Level FlightAware Approximate
Tue 11:50:00 AM 46.5422 -122.7064 North  Level FlightAware Approximate
Tue 11:51:00 AM 46.6166 -122.7030 North  Level FlightAware Approximate
Tue 11:52:00 AM 46.6909 -122.7000 North  Level FlightAware Approximate
Tue 11:53:00 AM 46.7653 -122.7000 North  Level FlightAware Approximate
Tue 11:54:00 AM 46.8327 -122.6673 34° Northeast  Level FlightAware Approximate
Tue 11:55:00 AM 46.8913 -122.6005 42° Northeast  Level FlightAware Approximate
Tue 11:56:00 AM 46.9521 -122.5406 19° North  Level FlightAware Approximate
Tue 11:57:00 AM 47.0234 -122.5108 10° North  Level FlightAware Approximate
Tue 11:58:00 AM 47.0956 -122.4855 19° North  Level FlightAware Approximate
Tue 11:59:00 AM 47.1691 -122.4695 North  Level FlightAware Approximate
Tue 12:00:00 PM 47.2430 -122.4601 10° North  Level FlightAware Approximate
Tue 12:01:00 PM 47.3168 -122.4500 North  Level FlightAware Approximate
Tue 12:02:00 PM 47.3911 -122.4500 North  Level FlightAware Approximate
Tue 12:03:00 PM 47.4655 -122.4500 North  Level FlightAware Approximate
Tue 12:04:00 PM 47.4861 -122.3946 110° East  Level FlightAware Approximate
Tue 12:05:00 PM 47.4394 -122.3100 132° Southeast  Level FlightAware Approximate
Tue 12:06:00 PM 47.4333 -122.3000 132° Southeast  Level FlightAware Approximate
Tue 12:07:00 PM 47.4499 -122.3118 132° Southeast  Level Estimated
Tue 12:08:00 PM 47.4499 -122.3118 132° Southeast  Level Estimated
Tue 12:09:00 PM 47.4499 -122.3118 132° Southeast  Level Estimated
Tue 12:10:00 PM 47.4499 -122.3118 132° Southeast  Level Estimated
Tue 12:11:00 PM 47.4499 -122.3118 132° Southeast  Level Estimated
Tue 12:12:00 PM 47.4499 -122.3118 132° Southeast  Level Estimated
Tue 12:13:00 PM 47.4499 -122.3118 132° Southeast  Level Estimated
Tue 12:14:00 PM 47.4499 -122.3118 132° Southeast  Level Estimated
Tue 12:15:00 PM 47.4499 -122.3118 132° Southeast  Level Estimated
Tue 12:16:00 PM 47.4499 -122.3118 132° Southeast  Level Estimated
Tue 12:17:00 PM 47.4499 -122.3118 132° Southeast  Level Estimated
Tue 12:18:00 PM 47.4499 -122.3118 132° Southeast  Level Estimated
Tue 12:19:00 PM 47.4499 -122.3118 132° Southeast  Level Estimated
Tue 12:20:00 PM 47.4499 -122.3118 132° Southeast  Level Estimated
Tue 12:21:00 PM 47.4499 -122.3118 132° Southeast  Level Estimated

Login

Don't have an account? Register now (free) for customized features, flight alerts, and more!